Time;durP1;ratioP1;P1;durP2;ratioP2;P2;SDS_P1;SDS_P2;PMS_P1;PMS_P2;Temp;Humidity;BMP_temperature;BMP_pressure;BME280_temperature;BME280_humidity;BME280_pressure;Samples;Min_cycle;Max_cycle;Signal;HPM_P1;HPM_P2
2021/01/07 00:00:41;;;;;;;20.65;11.18;;;2.60;88.00;;;;;;5052132;28;20112;-67
2021/01/07 00:03:07;;;;;;;18.38;9.85;;;2.60;87.90;;;;;;5052088;28;20040;-66
2021/01/07 00:05:33;;;;;;;15.65;9.18;;;2.60;88.00;;;;;;5051129;28;20492;-66
2021/01/07 00:07:58;;;;;;;18.58;9.52;;;2.60;88.00;;;;;;5070573;28;20053;-65
2021/01/07 00:10:24;;;;;;;17.00;9.70;;;2.60;88.00;;;;;;5052606;28;20117;-65
2021/01/07 00:12:50;;;;;;;17.83;10.43;;;2.60;88.00;;;;;;5070377;28;20033;-65
2021/01/07 00:15:15;;;;;;;17.58;9.68;;;2.60;87.90;;;;;;5067987;28;20032;-66
2021/01/07 00:17:41;;;;;;;17.05;10.05;;;2.60;87.90;;;;;;5051722;28;20032;-66
2021/01/07 00:20:09;;;;;;;17.33;10.43;;;2.60;87.90;;;;;;5069842;28;20028;-65
2021/01/07 00:22:35;;;;;;;15.10;9.48;;;2.60;87.90;;;;;;5068614;28;20101;-66
2021/01/07 00:25:03;;;;;;;17.15;10.18;;;2.60;87.90;;;;;;5051507;28;20024;-66
2021/01/07 00:27:29;;;;;;;17.10;10.10;;;2.60;87.90;;;;;;5069753;28;20116;-65
2021/01/07 00:29:54;;;;;;;18.63;11.00;;;2.60;87.90;;;;;;5070063;28;20123;-66
2021/01/07 00:32:23;;;;;;;17.05;10.15;;;2.70;87.90;;;;;;5051435;28;20042;-66
2021/01/07 00:34:48;;;;;;;22.45;12.93;;;2.70;87.70;;;;;;5069558;28;20037;-65
2021/01/07 00:37:14;;;;;;;19.60;11.40;;;2.70;87.70;;;;;;5069356;28;20108;-66
2021/01/07 00:39:40;;;;;;;20.35;12.05;;;2.70;87.70;;;;;;5052436;28;20476;-66
2021/01/07 00:42:06;;;;;;;19.02;10.77;;;2.70;87.70;;;;;;5069550;28;20074;-65
2021/01/07 00:44:32;;;;;;;18.95;11.68;;;2.70;87.60;;;;;;5069245;28;20017;-65
2021/01/07 00:46:57;;;;;;;23.50;12.50;;;2.70;87.70;;;;;;5069215;28;20021;-66
2021/01/07 00:49:23;;;;;;;33.08;14.95;;;2.70;87.60;;;;;;5070226;28;20025;-66
2021/01/07 00:51:48;;;;;;;33.95;15.13;;;2.70;87.50;;;;;;5067493;28;20032;-66
2021/01/07 00:54:14;;;;;;;19.23;11.27;;;2.70;87.30;;;;;;5069079;28;20037;-66
2021/01/07 00:56:40;;;;;;;22.67;13.20;;;2.60;87.50;;;;;;5051673;28;20033;-66
2021/01/07 00:59:06;;;;;;;16.52;10.48;;;2.70;87.60;;;;;;5052156;28;20473;-66
2021/01/07 01:01:33;;;;;;;18.80;11.57;;;2.60;87.60;;;;;;5068788;28;20107;-65
2021/01/07 01:03:59;;;;;;;23.00;12.73;;;2.60;87.70;;;;;;5069294;28;20032;-66
2021/01/07 01:06:34;;;;;;;20.77;12.25;;;2.60;87.70;;;;;;5071759;28;20032;-65
2021/01/07 01:09:00;;;;;;;19.85;11.70;;;2.60;87.70;;;;;;5073286;28;20031;-66
2021/01/07 01:11:27;;;;;;;23.35;13.20;;;2.70;87.70;;;;;;5073564;28;20021;-66
2021/01/07 01:13:53;;;;;;;22.85;13.73;;;2.70;87.60;;;;;;5072925;28;20021;-65
2021/01/07 01:16:19;;;;;;;19.65;12.55;;;2.60;87.60;;;;;;5055158;28;20421;-65
2021/01/07 01:18:44;;;;;;;20.30;12.15;;;2.60;87.60;;;;;;5073976;28;20064;-66
2021/01/07 01:21:10;;;;;;;21.25;12.02;;;2.70;87.50;;;;;;5074325;28;20577;-66
2021/01/07 01:23:36;;;;;;;23.63;12.50;;;2.70;87.50;;;;;;5074919;28;20038;-66
2021/01/07 01:26:01;;;;;;;23.30;13.02;;;2.70;87.50;;;;;;5073948;28;20498;-66
2021/01/07 01:28:27;;;;;;;20.70;12.80;;;2.60;87.50;;;;;;5057252;28;20028;-66
2021/01/07 01:30:52;;;;;;;20.83;12.60;;;2.60;87.60;;;;;;5073762;28;20021;-68
2021/01/07 01:33:18;;;;;;;20.00;11.88;;;2.60;87.70;;;;;;5075007;28;20046;-68
2021/01/07 01:35:43;;;;;;;19.35;12.73;;;2.60;87.60;;;;;;5073503;28;20540;-66
2021/01/07 01:38:09;;;;;;;19.48;11.43;;;2.70;87.60;;;;;;5075237;28;20563;-66
2021/01/07 01:40:35;;;;;;;21.17;12.50;;;2.70;87.60;;;;;;5074552;28;20051;-66
2021/01/07 01:43:01;;;;;;;21.10;12.52;;;2.70;87.60;;;;;;5074089;28;20064;-67
2021/01/07 01:45:26;;;;;;;22.17;13.15;;;2.80;87.60;;;;;;5073980;28;20392;-67
2021/01/07 01:47:52;;;;;;;18.65;11.48;;;2.80;87.40;;;;;;5074364;28;20035;-67
2021/01/07 01:50:18;;;;;;;18.58;11.52;;;2.80;87.10;;;;;;5074057;28;20032;-66
2021/01/07 01:52:43;;;;;;;19.75;11.45;;;2.80;87.10;;;;;;5069172;28;20516;-67
2021/01/07 01:55:10;;;;;;;18.67;10.48;;;2.70;87.00;;;;;;5073045;28;20039;-67
2021/01/07 01:57:37;;;;;;;19.05;12.55;;;2.60;87.00;;;;;;5073900;28;20366;-67
2021/01/07 02:00:05;;;;;;;18.13;10.95;;;2.70;87.20;;;;;;5074501;28;20028;-67
2021/01/07 02:02:30;;;;;;;19.70;12.60;;;2.70;87.10;;;;;;5055059;28;20484;-67
2021/01/07 02:04:56;;;;;;;17.17;11.02;;;2.60;87.10;;;;;;5073125;28;20036;-66
2021/01/07 02:07:25;;;;;;;19.15;12.18;;;2.60;87.10;;;;;;5074135;28;20491;-67
2021/01/07 02:09:51;;;;;;;18.02;11.52;;;2.60;87.20;;;;;;5074555;28;20031;-66
2021/01/07 02:12:16;;;;;;;17.38;10.73;;;2.60;87.20;;;;;;5072171;28;20462;-66
2021/01/07 02:14:43;;;;;;;19.08;11.88;;;2.50;87.20;;;;;;5055894;28;20123;-66
2021/01/07 02:17:10;;;;;;;19.92;12.38;;;2.50;87.20;;;;;;5074448;28;20550;-66
2021/01/07 02:19:35;;;;;;;20.35;11.93;;;2.50;87.20;;;;;;5073520;28;20496;-66
2021/01/07 02:22:01;;;;;;;22.10;12.77;;;2.50;87.30;;;;;;5073050;28;20060;-65
2021/01/07 02:24:28;;;;;;;20.42;12.32;;;2.60;87.40;;;;;;5056468;28;20020;-65
2021/01/07 02:26:59;;;;;;;20.58;12.65;;;2.60;87.50;;;;;;5073451;28;20658;-66
2021/01/07 02:29:25;;;;;;;21.95;12.60;;;2.60;87.50;;;;;;5090734;28;20024;-65
2021/01/07 02:31:50;;;;;;;19.52;12.07;;;2.60;87.30;;;;;;5074631;28;20047;-65
2021/01/07 02:34:16;;;;;;;19.80;11.88;;;2.70;87.10;;;;;;5073900;28;20032;-66
2021/01/07 02:36:41;;;;;;;19.63;11.95;;;2.70;86.90;;;;;;5056176;28;20031;-65
2021/01/07 02:39:07;;;;;;;19.63;12.15;;;2.70;87.10;;;;;;5056474;28;20024;-65
2021/01/07 02:41:33;;;;;;;20.45;12.23;;;2.70;87.20;;;;;;5074380;28;20512;-65
2021/01/07 02:43:58;;;;;;;19.35;11.95;;;2.70;87.00;;;;;;5073857;28;20043;-66
2021/01/07 02:46:24;;;;;;;19.08;11.45;;;2.70;86.90;;;;;;5074432;28;20483;-65
2021/01/07 02:48:50;;;;;;;23.08;11.70;;;2.70;87.10;;;;;;5074250;28;20073;-65
2021/01/07 02:51:16;;;;;;;20.65;12.52;;;2.60;87.10;;;;;;5053788;28;20021;-66
2021/01/07 02:53:41;;;;;;;20.55;12.25;;;2.70;87.20;;;;;;5073266;28;20023;-65
2021/01/07 02:56:07;;;;;;;20.70;12.52;;;2.70;87.10;;;;;;5053246;28;20033;-65
2021/01/07 02:58:32;;;;;;;20.73;12.65;;;2.80;87.20;;;;;;5073442;28;20124;-65
2021/01/07 03:00:58;;;;;;;21.25;12.43;;;2.80;87.10;;;;;;5072548;28;20100;-65
2021/01/07 03:03:23;;;;;;;19.42;11.90;;;2.80;87.00;;;;;;5054413;28;20028;-67
2021/01/07 03:05:49;;;;;;;20.65;11.43;;;2.80;87.00;;;;;;5084914;28;20103;-65
2021/01/07 03:08:15;;;;;;;17.35;11.45;;;2.80;86.90;;;;;;5053512;28;20028;-65
2021/01/07 03:10:40;;;;;;;21.27;12.30;;;2.80;86.50;;;;;;5070374;28;20029;-65
2021/01/07 03:13:06;;;;;;;19.02;11.60;;;2.80;86.30;;;;;;5053959;28;20120;-65
2021/01/07 03:15:31;;;;;;;22.13;12.88;;;2.70;86.30;;;;;;5069364;28;20064;-65
2021/01/07 03:17:57;;;;;;;19.48;11.93;;;2.70;86.40;;;;;;5052575;28;20028;-65
2021/01/07 03:20:23;;;;;;;19.40;11.95;;;2.60;86.60;;;;;;5053152;28;20028;-66
2021/01/07 03:22:48;;;;;;;20.35;11.90;;;2.60;86.70;;;;;;5069516;28;20511;-66
2021/01/07 03:25:17;;;;;;;20.05;12.32;;;2.60;86.70;;;;;;5069006;28;20025;-66
2021/01/07 03:27:42;;;;;;;20.25;12.25;;;2.70;86.70;;;;;;5071218;28;20028;-66
2021/01/07 03:30:08;;;;;;;22.30;12.40;;;2.70;86.70;;;;;;5070926;28;20635;-65
2021/01/07 03:32:35;;;;;;;19.80;11.82;;;2.70;86.60;;;;;;5070406;28;20024;-65
2021/01/07 03:35:05;;;;;;;21.33;12.25;;;2.70;86.60;;;;;;5085829;28;20395;-67
2021/01/07 03:37:31;;;;;;;23.45;13.77;;;2.60;86.40;;;;;;5052052;28;20129;-68
2021/01/07 03:39:57;;;;;;;25.30;14.40;;;2.60;86.40;;;;;;5071286;28;20431;-66
2021/01/07 03:42:22;;;;;;;22.27;13.48;;;2.60;86.40;;;;;;5070231;28;20520;-65
2021/01/07 03:44:48;;;;;;;25.05;14.23;;;2.60;86.40;;;;;;5070134;28;20074;-66
2021/01/07 03:47:13;;;;;;;24.27;13.68;;;2.60;86.60;;;;;;5070262;28;20095;-65
2021/01/07 03:49:39;;;;;;;22.27;13.10;;;2.50;86.60;;;;;;5070790;28;20116;-68
2021/01/07 03:52:05;;;;;;;23.75;14.02;;;2.50;86.60;;;;;;5067615;28;20024;-65
2021/01/07 03:54:30;;;;;;;23.80;13.85;;;2.50;86.50;;;;;;5066089;28;20036;-65
2021/01/07 03:56:56;;;;;;;23.42;13.20;;;2.60;86.60;;;;;;5070464;28;20060;-65
2021/01/07 03:59:21;;;;;;;23.73;12.85;;;2.60;86.50;;;;;;5071086;28;20024;-67
2021/01/07 04:01:47;;;;;;;24.75;13.38;;;2.50;86.50;;;;;;5068770;28;20043;-65
2021/01/07 04:04:12;;;;;;;25.15;13.73;;;2.60;86.70;;;;;;5069765;28;20017;-67
2021/01/07 04:06:38;;;;;;;22.58;12.88;;;2.50;86.60;;;;;;5085295;28;20032;-65
2021/01/07 04:09:04;;;;;;;21.05;12.60;;;2.60;86.60;;;;;;5070810;28;20012;-66
2021/01/07 04:11:30;;;;;;;21.83;13.20;;;2.60;86.40;;;;;;5068287;28;20108;-66
2021/01/07 04:13:56;;;;;;;22.00;13.18;;;2.50;86.40;;;;;;5069415;28;20103;-67
2021/01/07 04:16:21;;;;;;;21.98;12.98;;;2.50;86.40;;;;;;5069583;28;20025;-66
2021/01/07 04:18:47;;;;;;;22.40;12.77;;;2.50;86.40;;;;;;5070734;28;20021;-66
2021/01/07 04:21:16;;;;;;;25.65;14.35;;;2.50;86.50;;;;;;5069047;28;20071;-66
2021/01/07 04:23:42;;;;;;;23.10;12.93;;;2.50;86.40;;;;;;5044678;28;20021;-66
2021/01/07 04:26:08;;;;;;;20.67;12.23;;;2.50;86.40;;;;;;5086095;28;20046;-65
2021/01/07 04:28:34;;;;;;;19.35;11.75;;;2.50;86.50;;;;;;5072882;28;20033;-66
2021/01/07 04:30:59;;;;;;;21.25;11.85;;;2.40;86.40;;;;;;5051981;28;20071;-66
2021/01/07 04:33:25;;;;;;;24.13;13.25;;;2.40;86.40;;;;;;5070445;28;20095;-66
2021/01/07 04:35:51;;;;;;;25.60;13.02;;;2.40;86.50;;;;;;5069509;28;20044;-66
2021/01/07 04:38:16;;;;;;;20.88;13.18;;;2.40;86.40;;;;;;5052150;28;20032;-66
2021/01/07 04:40:42;;;;;;;24.33;13.25;;;2.30;86.40;;;;;;5070137;28;20040;-66
2021/01/07 04:43:07;;;;;;;23.55;14.23;;;2.30;86.50;;;;;;5083945;28;20035;-65
2021/01/07 04:45:33;;;;;;;21.38;12.65;;;2.40;86.60;;;;;;5069157;28;20374;-67
2021/01/07 04:48:00;;;;;;;21.88;13.32;;;2.30;86.30;;;;;;5070027;28;20107;-66
2021/01/07 04:50:26;;;;;;;22.23;13.18;;;2.30;86.60;;;;;;5069600;28;20025;-66
2021/01/07 04:52:52;;;;;;;24.80;13.18;;;2.30;86.50;;;;;;5069016;28;20078;-66
2021/01/07 04:55:17;;;;;;;25.02;13.88;;;2.30;86.60;;;;;;5069395;28;20044;-66
2021/01/07 04:57:43;;;;;;;21.58;12.68;;;2.30;86.70;;;;;;5049862;28;20032;-67
2021/01/07 05:00:12;;;;;;;25.60;13.48;;;2.30;86.70;;;;;;5051490;28;20618;-65
2021/01/07 05:02:38;;;;;;;25.60;13.68;;;2.40;86.80;;;;;;5069093;28;20025;-66
2021/01/07 05:05:06;;;;;;;25.60;15.85;;;2.40;86.80;;;;;;5068872;28;20029;-66
2021/01/07 05:07:35;;;;;;;23.75;13.77;;;2.40;86.70;;;;;;5051884;28;20555;-69
2021/01/07 05:10:04;;;;;;;24.00;13.95;;;2.40;86.60;;;;;;5051765;28;20020;-65
2021/01/07 05:12:29;;;;;;;23.92;13.73;;;2.40;86.70;;;;;;5069690;28;20029;-66
2021/01/07 05:14:55;;;;;;;29.15;14.13;;;2.40;86.70;;;;;;5068647;28;20102;-65
2021/01/07 05:17:21;;;;;;;26.35;14.30;;;2.40;86.70;;;;;;5070128;28;20025;-66
2021/01/07 05:19:46;;;;;;;28.60;14.77;;;2.40;86.70;;;;;;5069337;28;20029;-65
2021/01/07 05:22:12;;;;;;;25.15;13.85;;;2.40;86.70;;;;;;5085841;28;20036;-68
2021/01/07 05:24:38;;;;;;;27.60;15.35;;;2.40;86.70;;;;;;5069013;28;20070;-66
2021/01/07 05:27:06;;;;;;;26.13;14.65;;;2.40;86.60;;;;;;5051602;28;20016;-66
2021/01/07 05:29:32;;;;;;;28.45;15.05;;;2.40;86.50;;;;;;5068732;28;20021;-68
2021/01/07 05:31:57;;;;;;;26.42;14.63;;;2.40;86.60;;;;;;5068591;28;20457;-66
2021/01/07 05:34:23;;;;;;;29.00;13.93;;;2.30;86.60;;;;;;5050317;28;20017;-67
2021/01/07 05:36:49;;;;;;;27.95;14.55;;;2.40;86.70;;;;;;5068484;28;20040;-67
2021/01/07 05:39:14;;;;;;;27.67;15.32;;;2.30;86.50;;;;;;5070224;28;20095;-65
2021/01/07 05:41:40;;;;;;;24.55;13.65;;;2.30;86.60;;;;;;5069060;28;20028;-66
2021/01/07 05:44:12;;;;;;;29.65;15.55;;;2.30;86.70;;;;;;5068191;28;20029;-66
2021/01/07 05:46:37;;;;;;;30.63;15.70;;;2.30;86.70;;;;;;5056986;28;20134;-65
2021/01/07 05:49:03;;;;;;;28.77;15.43;;;2.30;86.60;;;;;;5068345;28;20283;-65
2021/01/07 05:51:31;;;;;;;25.20;14.82;;;2.30;86.60;;;;;;5045807;22;20045;-67
2021/01/07 05:53:57;;;;;;;27.35;14.50;;;2.20;86.60;;;;;;5037827;28;20040;-67
2021/01/07 05:56:24;;;;;;;30.15;15.15;;;2.20;86.80;;;;;;5053192;28;20025;-67
2021/01/07 05:58:51;;;;;;;30.38;16.63;;;2.20;86.90;;;;;;5052725;28;20049;-67
2021/01/07 06:01:18;;;;;;;28.58;15.38;;;2.20;87.00;;;;;;5052599;28;20045;-67
2021/01/07 06:03:52;;;;;;;28.25;14.68;;;2.20;86.80;;;;;;5052138;28;20021;-66
2021/01/07 06:06:21;;;;;;;28.88;15.55;;;2.20;87.00;;;;;;5035572;28;20017;-67
2021/01/07 06:08:49;;;;;;;28.98;14.93;;;2.20;86.90;;;;;;5033319;28;20647;-67
2021/01/07 06:11:17;;;;;;;28.50;14.85;;;2.30;87.00;;;;;;5052169;28;20021;-67
2021/01/07 06:13:46;;;;;;;28.92;15.73;;;2.20;87.00;;;;;;5048648;28;20025;-68
2021/01/07 06:16:18;;;;;;;33.25;16.08;;;2.20;87.00;;;;;;5050349;28;20067;-68
2021/01/07 06:18:44;;;;;;;30.23;15.77;;;2.30;87.20;;;;;;5052194;28;20028;-69
2021/01/07 06:21:11;;;;;;;30.27;16.15;;;2.30;87.10;;;;;;5034928;28;20655;-71
2021/01/07 06:23:44;;;;;;;30.60;15.93;;;2.20;87.10;;;;;;5054335;28;20120;-67
2021/01/07 06:26:27;;;;;;;27.95;15.32;;;2.20;87.00;;;;;;5046557;28;20531;-67
2021/01/07 06:28:59;;;;;;;23.88;13.10;;;2.20;87.00;;;;;;5034939;28;20040;-67
2021/01/07 06:31:35;;;;;;;28.98;14.82;;;2.20;87.10;;;;;;5052918;28;20031;-68
2021/01/07 06:34:02;;;;;;;29.52;15.10;;;2.20;87.30;;;;;;5042629;28;20060;-68
2021/01/07 06:36:44;;;;;;;26.70;14.10;;;2.30;87.40;;;;;;5051203;28;20036;-68
2021/01/07 06:39:10;;;;;;;29.42;14.88;;;2.30;87.50;;;;;;5055765;28;20036;-67
2021/01/07 06:41:36;;;;;;;31.33;15.63;;;2.30;87.10;;;;;;5051362;28;20036;-67
2021/01/07 06:44:04;;;;;;;27.88;14.73;;;2.40;87.10;;;;;;5050679;28;20036;-68
2021/01/07 06:46:44;;;;;;;28.42;14.18;;;2.30;86.90;;;;;;5052653;28;20497;-68
2021/01/07 06:49:21;;;;;;;27.45;14.07;;;2.30;87.00;;;;;;5067802;28;20029;-68
2021/01/07 06:52:04;;;;;;;32.38;16.48;;;2.30;87.10;;;;;;5050307;28;20099;-68
2021/01/07 06:54:35;;;;;;;30.80;17.52;;;2.30;87.10;;;;;;5032572;28;20420;-68
2021/01/07 06:57:03;;;;;;;28.00;16.38;;;2.20;87.10;;;;;;5050939;28;20029;-68
2021/01/07 06:59:29;;;;;;;30.73;15.98;;;2.20;87.20;;;;;;5051104;28;20049;-68
2021/01/07 07:01:57;;;;;;;31.75;15.30;;;2.20;87.40;;;;;;5050760;28;20036;-68
2021/01/07 07:04:30;;;;;;;28.35;15.70;;;2.20;87.40;;;;;;5049992;28;20052;-68
2021/01/07 07:06:58;;;;;;;30.48;15.27;;;2.20;87.30;;;;;;5048942;28;20180;-68
2021/01/07 07:09:25;;;;;;;30.75;15.63;;;2.20;87.50;;;;;;5032876;28;20033;-68
2021/01/07 07:11:55;;;;;;;32.47;17.02;;;2.20;87.50;;;;;;5050350;28;20035;-68
2021/01/07 07:14:23;;;;;;;40.30;18.08;;;2.20;87.40;;;;;;5049806;28;20017;-68
2021/01/07 07:16:49;;;;;;;33.15;16.65;;;2.20;87.50;;;;;;5050233;28;20033;-67
2021/01/07 07:19:27;;;;;;;36.97;19.08;;;2.10;87.50;;;;;;5050581;28;20044;-67
2021/01/07 07:22:01;;;;;;;38.00;18.17;;;2.10;87.70;;;;;;5048408;28;20025;-67
2021/01/07 07:24:32;;;;;;;37.67;18.80;;;2.20;87.80;;;;;;5049947;28;20025;-67
2021/01/07 07:27:43;;;;;;;36.92;18.80;;;2.10;87.70;;;;;;5044454;28;20517;-68
2021/01/07 07:30:09;;;;;;;41.13;20.05;;;2.10;87.90;;;;;;5042437;28;20034;-67
2021/01/07 07:32:44;;;;;;;35.67;18.52;;;2.10;87.90;;;;;;5041429;28;20029;-67
2021/01/07 07:35:36;;;;;;;40.50;19.15;;;2.10;88.00;;;;;;5066790;28;20028;-68
2021/01/07 07:38:08;;;;;;;;;;;2.10;88.20;;;;;;5039662;28;20093;-67
2021/01/07 07:40:36;;;;;;;39.33;17.80;;;2.10;88.00;;;;;;5049461;28;19916;-67
2021/01/07 07:43:04;;;;;;;37.60;18.58;;;2.10;87.90;;;;;;5049801;28;20547;-68
2021/01/07 07:45:32;;;;;;;36.15;16.92;;;2.10;88.20;;;;;;5049202;28;20066;-67
2021/01/07 07:48:00;;;;;;;39.55;18.80;;;2.10;88.20;;;;;;5050078;28;20021;-67
2021/01/07 07:50:28;;;;;;;32.63;16.08;;;2.10;88.30;;;;;;5023121;28;748966;-67
2021/01/07 07:53:12;;;;;;;35.03;17.52;;;2.10;88.20;;;;;;5050484;28;20031;-67
2021/01/07 07:55:40;;;;;;;33.28;18.05;;;2.10;88.20;;;;;;5048971;28;20526;-68
2021/01/07 07:58:12;;;;;;;35.97;16.63;;;2.10;88.20;;;;;;5050801;28;20110;-68
2021/01/07 08:00:54;;;;;;;33.83;18.27;;;2.10;88.30;;;;;;5032716;28;20075;-68
2021/01/07 08:03:30;;;;;;;31.17;16.02;;;2.10;88.40;;;;;;5050820;28;20025;-67
2021/01/07 08:06:00;;;;;;;32.65;16.77;;;2.10;88.30;;;;;;5049006;28;20017;-68
2021/01/07 08:08:33;;;;;;;37.20;16.83;;;2.10;88.50;;;;;;5032883;28;20496;-68
2021/01/07 08:11:00;;;;;;;35.22;17.95;;;2.10;88.60;;;;;;5049840;28;20025;-68
2021/01/07 08:13:30;;;;;;;33.90;16.27;;;2.10;88.60;;;;;;5050590;28;20033;-68
2021/01/07 08:15:59;;;;;;;32.80;16.88;;;2.10;88.50;;;;;;5049628;28;20033;-68
2021/01/07 08:18:29;;;;;;;30.75;16.05;;;2.10;88.50;;;;;;5050474;28;20025;-68
2021/01/07 08:21:06;;;;;;;29.88;15.65;;;2.10;88.50;;;;;;5049581;28;20374;-68
2021/01/07 08:23:32;;;;;;;34.17;15.88;;;2.10;88.50;;;;;;5049358;28;20025;-67
2021/01/07 08:26:01;;;;;;;28.48;15.02;;;2.10;88.70;;;;;;5049657;28;20032;-68
2021/01/07 08:28:44;;;;;;;31.88;16.90;;;2.10;88.80;;;;;;5050471;28;20078;-68
2021/01/07 08:31:18;;;;;;;33.25;17.10;;;2.10;89.40;;;;;;5041699;28;20439;-68
2021/01/07 08:33:44;;;;;;;28.38;15.95;;;2.10;88.90;;;;;;5046394;28;20021;-68
2021/01/07 08:36:12;;;;;;;26.08;13.85;;;2.10;89.00;;;;;;5049806;28;20102;-68
2021/01/07 08:38:39;;;;;;;29.42;15.73;;;2.10;89.00;;;;;;5049957;28;20021;-68
2021/01/07 08:41:12;;;;;;;35.65;15.63;;;2.10;89.00;;;;;;5050138;28;20519;-68
2021/01/07 08:43:38;;;;;;;31.88;16.05;;;2.20;89.00;;;;;;5049740;28;20029;-68
2021/01/07 08:46:24;;;;;;;28.85;15.18;;;2.20;88.90;;;;;;5049323;28;20238;-68
2021/01/07 08:49:16;;;;;;;30.33;16.02;;;2.20;88.80;;;;;;5049582;28;20040;-68
2021/01/07 08:51:46;;;;;;;33.17;17.83;;;2.30;88.70;;;;;;5049678;28;20032;-68
2021/01/07 08:54:15;;;;;;;27.55;16.10;;;2.30;88.60;;;;;;5049097;28;20017;-68
2021/01/07 08:56:43;;;;;;;31.17;17.83;;;2.30;88.60;;;;;;5050135;28;20017;-68
2021/01/07 08:59:19;;;;;;;30.50;16.92;;;2.30;88.60;;;;;;5049842;28;20474;-68
2021/01/07 09:01:45;;;;;;;31.45;17.05;;;2.30;88.80;;;;;;5049461;28;20235;-68
2021/01/07 09:04:26;;;;;;;31.98;16.40;;;2.40;88.70;;;;;;5048064;28;20013;-68
2021/01/07 09:06:57;;;;;;;37.35;18.70;;;2.40;88.70;;;;;;5049673;28;20036;-68
2021/01/07 09:09:23;;;;;;;38.13;19.27;;;2.40;88.50;;;;;;5049268;28;20025;-68
2021/01/07 09:11:48;;;;;;;30.45;17.50;;;2.50;88.50;;;;;;5049885;28;20029;-68
2021/01/07 09:14:14;;;;;;;36.90;18.50;;;2.50;88.40;;;;;;5048583;28;20033;-68
2021/01/07 09:16:39;;;;;;;37.13;19.00;;;2.40;88.40;;;;;;5032240;28;20107;-68
2021/01/07 09:19:06;;;;;;;35.50;18.83;;;2.40;88.40;;;;;;5049047;28;20527;-67
2021/01/07 09:21:37;;;;;;;35.10;18.02;;;2.40;88.30;;;;;;5049092;28;20082;-67
2021/01/07 09:24:03;;;;;;;41.35;19.10;;;2.40;88.30;;;;;;5048972;28;20013;-68
2021/01/07 09:26:29;;;;;;;41.00;21.02;;;2.40;88.40;;;;;;5050178;28;20648;-68
2021/01/07 09:28:55;;;;;;;35.95;16.77;;;2.30;88.50;;;;;;5050311;28;20033;-68
2021/01/07 09:31:21;;;;;;;35.75;17.55;;;2.30;88.70;;;;;;5044069;28;20540;-67
2021/01/07 09:33:46;;;;;;;40.92;17.85;;;2.30;88.70;;;;;;5043910;28;20052;-68
2021/01/07 09:36:12;;;;;;;33.97;16.10;;;2.30;88.60;;;;;;5053089;28;20151;-68
2021/01/07 09:38:37;;;;;;;33.17;16.13;;;2.30;88.60;;;;;;5061975;28;20510;-68
2021/01/07 09:41:03;;;;;;;31.60;15.00;;;2.30;88.50;;;;;;5047053;28;20544;-68
2021/01/07 09:43:35;;;;;;;34.08;17.33;;;2.40;88.60;;;;;;5040754;28;20036;-68
2021/01/07 09:46:01;;;;;;;30.75;13.63;;;2.50;88.50;;;;;;5053152;28;20096;-67
2021/01/07 09:48:26;;;;;;;30.80;14.77;;;2.50;88.30;;;;;;5053131;28;20540;-68
2021/01/07 09:50:52;;;;;;;25.42;13.15;;;2.60;88.40;;;;;;5053347;28;20036;-68
2021/01/07 09:53:20;;;;;;;28.98;15.23;;;2.70;88.20;;;;;;5049218;28;20112;-68
2021/01/07 09:55:48;;;;;;;26.30;14.30;;;2.80;87.70;;;;;;5051348;28;20020;-67
2021/01/07 09:58:13;;;;;;;24.35;13.57;;;2.80;87.40;;;;;;5034874;28;20036;-68
2021/01/07 10:00:39;;;;;;;24.30;14.40;;;2.90;87.50;;;;;;5053832;28;20029;-68
2021/01/07 10:03:04;;;;;;;39.28;22.13;;;2.90;87.80;;;;;;5052254;28;20037;-68
2021/01/07 10:05:30;;;;;;;24.15;13.20;;;3.00;87.20;;;;;;5052751;28;20082;-67
2021/01/07 10:07:58;;;;;;;29.02;17.75;;;3.00;87.20;;;;;;5051753;28;20611;-67
2021/01/07 10:10:23;;;;;;;24.90;15.75;;;3.00;86.50;;;;;;5053661;28;20112;-67
2021/01/07 10:12:49;;;;;;;27.83;16.42;;;2.90;86.40;;;;;;5053468;28;20174;-67
2021/01/07 10:15:14;;;;;;;23.70;14.98;;;2.90;86.30;;;;;;5034535;28;20105;-67
2021/01/07 10:17:40;;;;;;;22.38;13.63;;;3.00;86.20;;;;;;5035377;28;20108;-67
2021/01/07 10:20:07;;;;;;;21.23;12.55;;;3.00;86.20;;;;;;5035158;28;20031;-67
2021/01/07 10:22:36;;;;;;;26.08;15.30;;;3.00;86.00;;;;;;5052559;28;20028;-67
2021/01/07 10:25:06;;;;;;;24.48;11.35;;;3.00;86.10;;;;;;5049892;28;20017;-67
2021/01/07 10:27:32;;;;;;;21.83;11.88;;;3.00;85.60;;;;;;5051186;28;20029;-67
2021/01/07 10:29:59;;;;;;;24.05;13.73;;;3.00;85.50;;;;;;5035062;28;20032;-67
2021/01/07 10:32:24;;;;;;;19.00;11.98;;;3.00;85.40;;;;;;5049439;28;20033;-67
2021/01/07 10:34:51;;;;;;;20.92;10.95;;;3.00;85.20;;;;;;5052319;28;20523;-67
2021/01/07 10:37:18;;;;;;;20.30;10.75;;;3.00;85.50;;;;;;5052850;28;20033;-67
2021/01/07 10:39:47;;;;;;;25.83;13.52;;;3.10;85.30;;;;;;5052249;28;20374;-67
2021/01/07 10:42:14;;;;;;;25.90;14.40;;;3.10;85.80;;;;;;5032780;28;20427;-67
2021/01/07 10:44:41;;;;;;;16.83;10.25;;;3.10;85.30;;;;;;5035115;28;20111;-67
2021/01/07 10:47:09;;;;;;;20.45;12.43;;;3.10;85.50;;;;;;5034895;28;20128;-67
2021/01/07 10:49:37;;;;;;;16.90;10.55;;;3.10;85.60;;;;;;5046482;28;20031;-68
2021/01/07 10:52:32;;;;;;;13.88;8.88;;;3.10;85.00;;;;;;5051936;28;20559;-67
2021/01/07 10:55:09;;;;;;;15.80;8.55;;;3.10;83.60;;;;;;5051722;28;20029;-67
2021/01/07 10:58:04;;;;;;;22.88;12.00;;;3.00;83.50;;;;;;5052045;28;20422;-67
2021/01/07 11:00:45;;;;;;;15.32;8.98;;;3.00;83.80;;;;;;5013995;28;20450;-67
2021/01/07 11:03:40;;;;;;;16.00;9.10;;;3.00;83.10;;;;;;5051897;28;20423;-67
2021/01/07 11:06:09;;;;;;;14.75;8.70;;;2.90;83.10;;;;;;5064409;28;20082;-67
2021/01/07 11:08:41;;;;;;;17.10;9.68;;;2.90;83.30;;;;;;5033803;28;20375;-67
2021/01/07 11:11:24;;;;;;;19.23;11.40;;;2.90;83.40;;;;;;5052172;28;20469;-69
2021/01/07 11:13:56;;;;;;;13.57;7.70;;;2.90;83.60;;;;;;5050646;28;20079;-69
2021/01/07 11:16:39;;;;;;;21.77;10.63;;;2.90;83.20;;;;;;5051865;28;20029;-69
2021/01/07 11:19:08;;;;;;;16.42;9.68;;;3.00;83.30;;;;;;5051984;28;20056;-69
2021/01/07 11:21:38;;;;;;;15.27;9.27;;;3.00;83.40;;;;;;5051131;28;20048;-69
2021/01/07 11:24:05;;;;;;;14.52;9.25;;;3.00;82.60;;;;;;5051271;28;20017;-69
2021/01/07 11:26:30;;;;;;;14.80;8.80;;;3.10;82.80;;;;;;5051803;28;20124;-69
2021/01/07 11:28:56;;;;;;;14.13;9.02;;;3.10;82.50;;;;;;5051704;28;20053;-69
2021/01/07 11:31:22;;;;;;;15.18;8.70;;;3.10;82.40;;;;;;5051361;28;20104;-69
2021/01/07 11:33:50;;;;;;;14.07;7.68;;;3.20;82.20;;;;;;5051629;28;20503;-69
2021/01/07 11:36:21;;;;;;;14.55;8.23;;;3.20;81.90;;;;;;5051010;28;20028;-69
2021/01/07 11:39:05;;;;;;;13.87;7.63;;;3.20;81.90;;;;;;5051718;28;20020;-69
2021/01/07 11:41:47;;;;;;;14.32;8.25;;;3.20;81.90;;;;;;5049503;28;20112;-69
2021/01/07 11:44:41;;;;;;;11.88;7.22;;;3.30;82.00;;;;;;5050725;28;20017;-69
2021/01/07 11:47:10;;;;;;;14.13;8.25;;;3.40;82.00;;;;;;5051722;28;20044;-69
2021/01/07 11:49:45;;;;;;;12.73;7.70;;;3.40;82.20;;;;;;5050863;28;20033;-69
2021/01/07 11:52:11;;;;;;;13.27;8.40;;;3.40;81.40;;;;;;5063738;22;20139;-90
2021/01/07 11:54:38;;;;;;;12.02;6.75;;;3.50;80.90;;;;;;5029469;28;20458;-88
2021/01/07 11:57:08;;;;;;;11.30;7.28;;;3.40;80.80;;;;;;5033914;28;20113;-90
2021/01/07 11:59:40;;;;;;;12.65;7.40;;;3.40;80.60;;;;;;5032045;28;20526;-89
2021/01/07 12:02:09;;;;;;;11.20;6.88;;;3.40;80.20;;;;;;5015334;28;20033;-88
2021/01/07 12:04:36;;;;;;;11.95;6.53;;;3.40;80.70;;;;;;5008901;28;20022;-90
2021/01/07 12:07:32;;;;;;;11.75;7.28;;;3.40;80.60;;;;;;4995556;28;20087;-88
2021/01/07 12:10:04;;;;;;;28.67;14.48;;;3.40;80.50;;;;;;5012715;28;20050;-91
2021/01/07 12:12:42;;;;;;;13.52;7.97;;;3.40;81.00;;;;;;5013120;28;20492;-90
2021/01/07 12:15:14;;;;;;;15.93;7.40;;;3.40;81.10;;;;;;5012675;28;20025;-90
2021/01/07 12:17:40;;;;;;;17.38;8.35;;;3.30;81.00;;;;;;5010875;28;20025;-90
2021/01/07 12:20:07;;;;;;;16.45;8.80;;;3.30;81.50;;;;;;5010439;28;20084;-90
2021/01/07 12:22:33;;;;;;;14.98;8.48;;;3.40;82.10;;;;;;5013460;28;20030;-90
2021/01/07 12:25:01;;;;;;;14.38;8.23;;;3.50;81.90;;;;;;5012019;28;20033;-90
2021/01/07 12:27:27;;;;;;;14.68;8.57;;;3.60;81.60;;;;;;5011731;28;20373;-91
2021/01/07 12:29:53;;;;;;;13.07;7.97;;;3.80;80.70;;;;;;5012424;28;20113;-91
2021/01/07 12:32:32;;;;;;;12.82;6.93;;;4.00;80.60;;;;;;5012260;28;20053;-90
2021/01/07 12:35:11;;;;;;;15.50;7.90;;;4.20;79.40;;;;;;5011257;28;20034;-90
2021/01/07 12:37:53;;;;;;;14.98;7.82;;;4.40;79.60;;;;;;5017880;28;20049;-90
2021/01/07 12:40:20;;;;;;;14.43;7.55;;;4.70;79.80;;;;;;5012481;28;20134;-91
2021/01/07 12:42:54;;;;;;;17.63;9.30;;;4.90;79.40;;;;;;5019851;28;20026;-90
2021/01/07 12:45:22;;;;;;;16.85;9.77;;;5.10;79.50;;;;;;5011636;28;20100;-89